Latest Coastal Weather Observations for Sydney Harbour

IDN60701

Issued at 5:21 pm EDT Thursday 14 December 2017 (issued every 10 minutes, with the page automatically refreshed every 10 minutes)

About coastal observations | Map of coastal stations | Coastal observations for NSW | Marine services | Other Formats
Station Details ID: 066196 Name: WEDDING CAKE WEST Lat: -33.84 Lon: 151.26 Height: 6.0 m
Data from the previous 72 hours. | See also: Recent months at Sydney Harbour
Date/Time
EDT
Temp
°C
Wind Pressure Rain since
9am
mm
Weather Cloud Vis
km
Sea
Height
m
Swell
Dir  Spd
kts
Gust
kts
hPa Trend Height
m
Period
s
Dir
14/05:00pm 23.0 NE 12 15 - - - - - - - - - -
14/04:30pm 23.0 NE 14 17 - - - - - - - - - -
14/04:00pm 23.3 NE 12 15 - - - - - - - - - -
14/03:30pm 23.4 NE 12 14 - - - - - - - - - -
14/03:00pm 23.4 NE 13 17 - - - - - - - - - -
14/02:30pm 23.2 NE 11 15 - - - - - - - - - -
14/02:00pm 23.6 NNE 13 16 - - - - - - - - - -
14/01:30pm 23.6 NNE 16 19 - - - - - - - - - -
14/01:00pm 23.3 NE 16 19 - - - - - - - - - -
14/12:30pm 23.2 NNE 15 18 - - - - - - - - - -
14/12:00pm 22.9 NNE 14 16 - - - - - - - - - -
14/11:30am 22.8 NNE 13 16 - - - - - - - - - -
14/11:00am 22.2 NNE 14 17 - - - - - - - - - -
14/10:30am 21.9 NNE 13 16 - - - - - - - - - -
14/10:00am 21.7 NNE 14 17 - - - - - - - - - -
14/09:30am 21.9 NNE 12 13 - - - - - - - - - -
14/09:00am 21.8 NNE 9 11 - - - - - - - - - -
14/08:30am 21.5 NNE 7 9 - - - - - - - - - -
14/08:00am 22.0 NNE 5 7 - - - - - - - - - -
14/07:30am 21.4 N 3 4 - - - - - - - - - -
14/07:00am 21.1 CALM 0 0 - - - - - - - - - -
14/06:30am 20.4 NNE 10 13 - - - - - - - - - -
14/06:00am 20.4 N 12 16 - - - - - - - - - -
14/05:30am 20.4 NNE 10 13 - - - - - - - - - -
14/05:00am 20.6 NNE 9 11 - - - - - - - - - -
14/04:30am 20.7 NNE 11 14 - - - - - - - - - -
14/04:00am 20.7 NNE 11 14 - - - - - - - - - -
14/03:30am 20.8 NNE 10 14 - - - - - - - - - -
14/03:00am 20.8 NNE 11 14 - - - - - - - - - -
14/02:30am 20.9 NNE 11 13 - - - - - - - - - -
14/02:00am 21.1 NNE 13 15 - - - - - - - - - -
14/01:30am 21.2 NNE 10 12 - - - - - - - - - -
14/01:00am 21.2 NE 10 13 - - - - - - - - - -
14/12:30am 21.3 NNE 10 11 - - - - - - - - - -
14/12:00am 21.5 NNE 9 11 - - - - - - - - - -
 
Date/Time
EDT
Temp
°C
Wind Pressure Rain since
9am
mm
Weather Cloud Vis
km
Sea
Height
m
Swell
Dir  Spd
kts
Gust
kts
hPa Trend Height
m
Period
s
Dir
13/11:30pm 21.6 NNE 11 14 - - - - - - - - - -
13/11:00pm 21.5 NNE 9 12 - - - - - - - - - -
13/10:30pm 21.7 NNE 14 19 - - - - - - - - - -
13/10:00pm 21.7 NNE 17 21 - - - - - - - - - -
13/09:30pm 21.6 NNE 19 24 - - - - - - - - - -
13/09:00pm 21.7 NNE 19 22 - - - - - - - - - -
13/08:30pm 21.9 NNE 20 26 - - - - - - - - - -
13/08:00pm 21.9 NNE 23 29 - - - - - - - - - -
13/07:30pm 22.0 NNE 23 27 - - - - - - - - - -
13/07:00pm 22.0 NNE 25 29 - - - - - - - - - -
13/06:30pm 22.0 NNE 25 28 - - - - - - - - - -
13/06:00pm 22.1 NNE 24 27 - - - - - - - - - -
13/05:30pm 22.1 NNE 25 30 - - - - - - - - - -
13/05:00pm 22.2 NNE 25 30 - - - - - - - - - -
13/04:30pm 22.0 NNE 23 30 - - - - - - - - - -
13/04:00pm 22.0 NNE 23 27 - - - - - - - - - -
13/03:30pm 22.1 NNE 23 27 - - - - - - - - - -
13/03:00pm 22.1 NNE 20 25 - - - - - - - - - -
13/02:30pm 22.1 NNE 18 21 - - - - - - - - - -
13/02:00pm 22.1 NNE 17 21 - - - - - - - - - -
13/01:30pm 21.9 NNE 16 20 - - - - - - - - - -
13/01:00pm 21.9 NNE 16 19 - - - - - - - - - -
13/12:30pm 21.6 NE 13 15 - - - - - - - - - -
13/12:00pm 21.5 ENE 11 13 - - - - - - - - - -
13/11:30am 21.4 ENE 12 13 - - - - - - - - - -
13/11:00am 21.3 ENE 11 13 - - - - - - - - - -
13/10:30am 21.5 NE 10 11 - - - - - - - - - -
13/10:00am 21.6 N 8 9 - - - - - - - - - -
13/09:30am 21.8 N 6 7 - - - - - - - - - -
13/09:00am 22.3 N 5 6 - - - - - - - - - -
13/08:30am 21.3 N 5 6 - - - - - - - - - -
13/08:00am 20.8 N 5 6 - - - - - - - - - -
13/07:30am 20.4 CALM 0 0 - - - - - - - - - -
13/07:00am 20.1 CALM 0 0 - - - - - - - - - -
13/06:30am 20.0 CALM 0 0 - - - - - - - - - -
13/06:00am 19.6 CALM 0 0 - - - - - - - - - -
13/05:30am 19.7 CALM 0 0 - - - - - - - - - -
13/05:00am 20.2 CALM 0 0 - - - - - - - - - -
13/04:30am 20.3 N 3 4 - - - - - - - - - -
13/04:00am 20.5 N 4 4 - - - - - - - - - -
13/03:30am 20.9 N 7 8 - - - - - - - - - -
13/03:00am 21.0 N 7 9 - - - - - - - - - -
13/02:30am 21.0 NNE 8 11 - - - - - - - - - -
13/02:00am 21.2 NNE 12 14 - - - - - - - - - -
13/01:30am 21.2 NNE 13 15 - - - - - - - - - -
13/01:00am 21.3 NNE 13 15 - - - - - - - - - -
13/12:30am 21.4 NNE 14 16 - - - - - - - - - -
13/12:00am 21.6 NNE 15 18 - - - - - - - - - -
 
Date/Time
EDT
Temp
°C
Wind Pressure Rain since
9am
mm
Weather Cloud Vis
km
Sea
Height
m
Swell
Dir  Spd
kts
Gust
kts
hPa Trend Height
m
Period
s
Dir
12/11:30pm 21.7 NE 14 17 - - - - - - - - - -
12/11:00pm 21.8 NE 12 15 - - - - - - - - - -
12/10:30pm 21.8 NE 12 15 - - - - - - - - - -
12/10:00pm 21.9 NE 12 15 - - - - - - - - - -
12/09:30pm 21.9 NE 11 15 - - - - - - - - - -
12/09:00pm 21.7 NE 13 16 - - - - - - - - - -
12/08:30pm 21.7 NNE 14 18 - - - - - - - - - -
12/08:00pm 21.9 NNE 17 22 - - - - - - - - - -
12/07:30pm 22.0 NNE 17 23 - - - - - - - - - -
12/07:00pm 22.3 NE 15 20 - - - - - - - - - -
12/06:30pm 22.4 NE 17 22 - - - - - - - - - -
12/06:00pm 22.3 NE 18 21 - - - - - - - - - -
12/05:30pm 22.3 NE 19 23 - - - - - - - - - -
12/05:00pm 22.4 NE 19 21 - - - - - - - - - -
12/04:30pm 22.4 NE 19 22 - - - - - - - - - -
12/04:00pm 22.4 NE 18 24 - - - - - - - - - -
12/03:30pm 22.3 NE 18 21 - - - - - - - - - -
12/03:00pm 22.2 NE 17 21 - - - - - - - - - -
12/02:30pm 22.1 NE 16 19 - - - - - - - - - -
12/02:00pm 22.1 ENE 16 19 - - - - - - - - - -
12/01:30pm 22.3 ENE 15 18 - - - - - - - - - -
12/01:00pm 22.3 ENE 15 17 - - - - - - - - - -
12/12:30pm 22.3 ENE 14 16 - - - - - - - - - -
12/12:00pm 22.4 ENE 13 15 - - - - - - - - - -
12/11:30am 22.2 NE 11 13 - - - - - - - - - -
12/11:00am 22.3 NE 10 13 - - - - - - - - - -
12/10:30am 22.4 NE 11 13 - - - - - - - - - -
12/10:00am 22.1 ENE 8 9 - - - - - - - - - -
12/09:30am 21.9 NE 8 10 - - - - - - - - - -
12/09:00am 21.9 NE 6 7 - - - - - - - - - -
12/08:30am 21.7 NE 6 8 - - - - - - - - - -
12/08:00am 21.5 CALM 0 0 - - - - - - - - - -
12/07:30am 21.5 CALM 0 0 - - - - - - - - - -
12/07:00am 21.0 CALM 0 0 - - - - - - - - - -
12/06:30am 20.5 CALM 0 0 - - - - - - - - - -
12/06:00am 20.7 NE 3 3 - - - - - - - - - -
12/05:30am 20.8 NE 4 4 - - - - - - - - - -
12/05:00am 20.9 NE 1 4 - - - - - - - - - -
12/04:30am 20.8 NE 4 6 - - - - - - - - - -
12/04:00am 20.9 NE 6 7 - - - - - - - - - -
12/03:30am 21.2 NE 8 9 - - - - - - - - - -
12/03:00am 21.2 NE 8 9 - - - - - - - - - -
12/02:30am 21.0 NE 6 7 - - - - - - - - - -
12/02:00am 21.2 NE 7 8 - - - - - - - - - -
12/01:30am 21.3 NE 7 9 - - - - - - - - - -
12/01:00am 21.1 NE 6 8 - - - - - - - - - -
12/12:30am 21.4 NE 7 7 - - - - - - - - - -
12/12:00am 21.6 NE 5 6 - - - - - - - - - -
 
Date/Time
EDT
Temp
°C
Wind Pressure Rain since
9am
mm
Weather Cloud Vis
km
Sea
Height
m
Swell
Dir  Spd
kts
Gust
kts
hPa Trend Height
m
Period
s
Dir
11/11:30pm 21.6 NE 6 6 - - - - - - - - - -
11/11:00pm 21.7 NE 6 8 - - - - - - - - - -
11/10:30pm 21.4 NE 5 5 - - - - - - - - - -
11/10:00pm 21.4 NE 5 7 - - - - - - - - - -
11/09:30pm 21.5 NE 7 8 - - - - - - - - - -
11/09:00pm 21.6 NE 9 13 - - - - - - - - - -
11/08:30pm 21.6 NNE 12 15 - - - - - - - - - -
11/08:00pm 21.8 NNE 13 16 - - - - - - - - - -
11/07:30pm 22.0 NNE 14 17 - - - - - - - - - -
11/07:00pm 22.2 NE 15 18 - - - - - - - - - -
11/06:30pm 22.0 NE 18 22 - - - - - - - - - -
11/06:00pm 22.0 NE 17 21 - - - - - - - - - -
11/05:30pm 22.0 NE 19 23 - - - - - - - - - -

Other Formats:

Comma delimited format used in spreadsheet applications
http://www.bom.gov.au/fwo/IDN60701/IDN60701.95766.axf

JavaScript Object Notation format (JSON) in row-major order
http://www.bom.gov.au/fwo/IDN60701/IDN60701.95766.json